sensor_id;sensor_type;location;lat;lon;timestamp;P1;durP1;ratioP1;P2;durP2;ratioP2
2618;SDS011;1319;52.346;13.096;2023-05-19T00:02:13;7.53;;;4.77;;
2618;SDS011;1319;52.346;13.096;2023-05-19T00:04:39;12.60;;;4.80;;
2618;SDS011;1319;52.346;13.096;2023-05-19T00:07:05;12.13;;;4.67;;
2618;SDS011;1319;52.346;13.096;2023-05-19T00:09:32;10.53;;;4.73;;
2618;SDS011;1319;52.346;13.096;2023-05-19T00:11:57;12.67;;;5.17;;
2618;SDS011;1319;52.346;13.096;2023-05-19T00:14:22;15.70;;;5.20;;
2618;SDS011;1319;52.346;13.096;2023-05-19T00:16:48;10.50;;;4.97;;
2618;SDS011;1319;52.346;13.096;2023-05-19T00:19:13;12.20;;;4.77;;
2618;SDS011;1319;52.346;13.096;2023-05-19T00:21:40;9.80;;;5.17;;
2618;SDS011;1319;52.346;13.096;2023-05-19T00:24:06;10.33;;;4.67;;
2618;SDS011;1319;52.346;13.096;2023-05-19T00:26:31;10.53;;;5.30;;
2618;SDS011;1319;52.346;13.096;2023-05-19T00:28:56;11.93;;;5.07;;
2618;SDS011;1319;52.346;13.096;2023-05-19T00:31:21;9.87;;;4.53;;
2618;SDS011;1319;52.346;13.096;2023-05-19T00:33:47;13.10;;;4.60;;
2618;SDS011;1319;52.346;13.096;2023-05-19T00:36:12;10.07;;;4.40;;
2618;SDS011;1319;52.346;13.096;2023-05-19T00:38:37;8.43;;;4.20;;
2618;SDS011;1319;52.346;13.096;2023-05-19T00:41:03;10.30;;;4.10;;
2618;SDS011;1319;52.346;13.096;2023-05-19T00:43:28;9.63;;;4.33;;
2618;SDS011;1319;52.346;13.096;2023-05-19T00:45:54;8.37;;;4.13;;
2618;SDS011;1319;52.346;13.096;2023-05-19T00:48:19;10.27;;;4.50;;
2618;SDS011;1319;52.346;13.096;2023-05-19T00:50:45;9.47;;;4.63;;
2618;SDS011;1319;52.346;13.096;2023-05-19T00:53:12;10.37;;;4.53;;
2618;SDS011;1319;52.346;13.096;2023-05-19T00:55:38;10.67;;;5.20;;
2618;SDS011;1319;52.346;13.096;2023-05-19T00:58:04;11.97;;;4.70;;
2618;SDS011;1319;52.346;13.096;2023-05-19T01:00:30;6.77;;;5.10;;
2618;SDS011;1319;52.346;13.096;2023-05-19T01:02:55;9.33;;;5.27;;
2618;SDS011;1319;52.346;13.096;2023-05-19T01:05:21;6.03;;;4.70;;
2618;SDS011;1319;52.346;13.096;2023-05-19T01:07:46;9.30;;;5.30;;
2618;SDS011;1319;52.346;13.096;2023-05-19T01:10:11;13.40;;;5.83;;
2618;SDS011;1319;52.346;13.096;2023-05-19T01:12:37;11.87;;;5.47;;
2618;SDS011;1319;52.346;13.096;2023-05-19T01:15:02;10.83;;;5.27;;
2618;SDS011;1319;52.346;13.096;2023-05-19T01:17:30;12.40;;;5.17;;
2618;SDS011;1319;52.346;13.096;2023-05-19T01:20:04;9.77;;;5.00;;
2618;SDS011;1319;52.346;13.096;2023-05-19T01:32:28;11.20;;;4.63;;
2618;SDS011;1319;52.346;13.096;2023-05-19T01:34:54;13.50;;;4.27;;
2618;SDS011;1319;52.346;13.096;2023-05-19T01:37:20;7.00;;;4.40;;
2618;SDS011;1319;52.346;13.096;2023-05-19T01:39:47;8.20;;;4.13;;
2618;SDS011;1319;52.346;13.096;2023-05-19T01:42:12;6.87;;;4.47;;
2618;SDS011;1319;52.346;13.096;2023-05-19T01:44:38;6.47;;;4.00;;
2618;SDS011;1319;52.346;13.096;2023-05-19T01:47:03;12.80;;;4.37;;
2618;SDS011;1319;52.346;13.096;2023-05-19T01:49:28;9.20;;;4.30;;
2618;SDS011;1319;52.346;13.096;2023-05-19T01:51:54;7.37;;;4.50;;
2618;SDS011;1319;52.346;13.096;2023-05-19T01:54:20;8.50;;;4.57;;
2618;SDS011;1319;52.346;13.096;2023-05-19T01:56:58;8.90;;;4.30;;
2618;SDS011;1319;52.346;13.096;2023-05-19T02:04:56;8.43;;;3.90;;
2618;SDS011;1319;52.346;13.096;2023-05-19T02:07:34;7.07;;;4.33;;
2618;SDS011;1319;52.346;13.096;2023-05-19T02:10:05;9.63;;;4.33;;
2618;SDS011;1319;52.346;13.096;2023-05-19T02:12:33;7.37;;;4.07;;
2618;SDS011;1319;52.346;13.096;2023-05-19T02:17:24;6.63;;;4.20;;
2618;SDS011;1319;52.346;13.096;2023-05-19T02:19:51;10.73;;;3.77;;
2618;SDS011;1319;52.346;13.096;2023-05-19T02:22:16;8.20;;;4.00;;
2618;SDS011;1319;52.346;13.096;2023-05-19T02:24:41;8.67;;;4.43;;
2618;SDS011;1319;52.346;13.096;2023-05-19T02:27:08;7.43;;;3.90;;
2618;SDS011;1319;52.346;13.096;2023-05-19T02:29:33;8.70;;;4.30;;
2618;SDS011;1319;52.346;13.096;2023-05-19T02:31:59;7.33;;;4.07;;
2618;SDS011;1319;52.346;13.096;2023-05-19T02:34:24;5.57;;;4.10;;
2618;SDS011;1319;52.346;13.096;2023-05-19T02:36:49;9.50;;;4.27;;
2618;SDS011;1319;52.346;13.096;2023-05-19T02:39:15;8.03;;;3.97;;
2618;SDS011;1319;52.346;13.096;2023-05-19T02:41:40;5.90;;;3.83;;
2618;SDS011;1319;52.346;13.096;2023-05-19T02:44:05;8.17;;;4.53;;
2618;SDS011;1319;52.346;13.096;2023-05-19T02:46:31;7.43;;;4.00;;
2618;SDS011;1319;52.346;13.096;2023-05-19T02:48:56;8.80;;;4.50;;
2618;SDS011;1319;52.346;13.096;2023-05-19T02:51:22;8.33;;;4.50;;
2618;SDS011;1319;52.346;13.096;2023-05-19T02:53:47;10.03;;;4.93;;
2618;SDS011;1319;52.346;13.096;2023-05-19T02:56:12;9.87;;;4.37;;
2618;SDS011;1319;52.346;13.096;2023-05-19T02:58:37;11.03;;;4.80;;
2618;SDS011;1319;52.346;13.096;2023-05-19T03:01:03;8.57;;;4.77;;
2618;SDS011;1319;52.346;13.096;2023-05-19T03:03:28;9.20;;;4.50;;
2618;SDS011;1319;52.346;13.096;2023-05-19T03:05:53;6.07;;;4.20;;
2618;SDS011;1319;52.346;13.096;2023-05-19T03:08:19;6.27;;;3.90;;
2618;SDS011;1319;52.346;13.096;2023-05-19T03:10:44;9.10;;;4.40;;
2618;SDS011;1319;52.346;13.096;2023-05-19T03:13:10;12.43;;;4.50;;
2618;SDS011;1319;52.346;13.096;2023-05-19T03:15:35;8.00;;;4.17;;
2618;SDS011;1319;52.346;13.096;2023-05-19T03:18:00;10.10;;;4.37;;
2618;SDS011;1319;52.346;13.096;2023-05-19T03:20:25;7.57;;;4.20;;
2618;SDS011;1319;52.346;13.096;2023-05-19T03:22:51;9.73;;;4.33;;
2618;SDS011;1319;52.346;13.096;2023-05-19T03:25:16;9.40;;;4.57;;
2618;SDS011;1319;52.346;13.096;2023-05-19T03:27:41;8.97;;;4.40;;
2618;SDS011;1319;52.346;13.096;2023-05-19T03:30:07;10.47;;;4.30;;
2618;SDS011;1319;52.346;13.096;2023-05-19T03:32:32;8.10;;;4.17;;
2618;SDS011;1319;52.346;13.096;2023-05-19T03:35:01;9.00;;;4.63;;
2618;SDS011;1319;52.346;13.096;2023-05-19T03:37:26;7.80;;;4.77;;
2618;SDS011;1319;52.346;13.096;2023-05-19T03:39:51;9.17;;;4.27;;
2618;SDS011;1319;52.346;13.096;2023-05-19T03:42:16;8.30;;;4.87;;
2618;SDS011;1319;52.346;13.096;2023-05-19T03:44:42;7.30;;;4.73;;
2618;SDS011;1319;52.346;13.096;2023-05-19T03:47:08;9.23;;;4.50;;
2618;SDS011;1319;52.346;13.096;2023-05-19T03:49:33;8.10;;;4.57;;
2618;SDS011;1319;52.346;13.096;2023-05-19T03:51:58;9.63;;;4.70;;
2618;SDS011;1319;52.346;13.096;2023-05-19T03:54:24;7.47;;;4.60;;
2618;SDS011;1319;52.346;13.096;2023-05-19T03:56:49;9.53;;;4.70;;
2618;SDS011;1319;52.346;13.096;2023-05-19T03:59:14;10.70;;;4.50;;
2618;SDS011;1319;52.346;13.096;2023-05-19T04:01:40;7.37;;;4.87;;
2618;SDS011;1319;52.346;13.096;2023-05-19T04:04:05;8.47;;;4.50;;
2618;SDS011;1319;52.346;13.096;2023-05-19T04:06:30;12.03;;;5.07;;
2618;SDS011;1319;52.346;13.096;2023-05-19T04:08:55;9.80;;;4.63;;
2618;SDS011;1319;52.346;13.096;2023-05-19T04:11:21;8.27;;;4.23;;
2618;SDS011;1319;52.346;13.096;2023-05-19T04:13:46;13.50;;;5.03;;
2618;SDS011;1319;52.346;13.096;2023-05-19T04:16:11;6.30;;;4.10;;
2618;SDS011;1319;52.346;13.096;2023-05-19T04:18:36;12.10;;;4.80;;
2618;SDS011;1319;52.346;13.096;2023-05-19T04:21:02;5.70;;;4.33;;
2618;SDS011;1319;52.346;13.096;2023-05-19T04:23:27;8.93;;;4.57;;
2618;SDS011;1319;52.346;13.096;2023-05-19T04:25:52;9.10;;;4.70;;
2618;SDS011;1319;52.346;13.096;2023-05-19T04:28:18;8.93;;;4.70;;
2618;SDS011;1319;52.346;13.096;2023-05-19T04:30:43;9.87;;;4.43;;
2618;SDS011;1319;52.346;13.096;2023-05-19T04:33:10;7.90;;;4.40;;
2618;SDS011;1319;52.346;13.096;2023-05-19T04:35:35;13.43;;;4.60;;
2618;SDS011;1319;52.346;13.096;2023-05-19T04:38:02;7.57;;;4.50;;
2618;SDS011;1319;52.346;13.096;2023-05-19T04:40:27;11.77;;;4.20;;
2618;SDS011;1319;52.346;13.096;2023-05-19T04:42:54;7.50;;;4.30;;
2618;SDS011;1319;52.346;13.096;2023-05-19T04:45:20;8.93;;;4.23;;
2618;SDS011;1319;52.346;13.096;2023-05-19T04:47:45;9.23;;;4.03;;
2618;SDS011;1319;52.346;13.096;2023-05-19T04:50:13;11.93;;;4.00;;
2618;SDS011;1319;52.346;13.096;2023-05-19T04:52:39;8.37;;;4.03;;
2618;SDS011;1319;52.346;13.096;2023-05-19T04:55:06;10.07;;;4.07;;
2618;SDS011;1319;52.346;13.096;2023-05-19T04:57:31;9.50;;;3.97;;
2618;SDS011;1319;52.346;13.096;2023-05-19T04:59:57;8.93;;;4.10;;
2618;SDS011;1319;52.346;13.096;2023-05-19T05:02:24;7.10;;;4.43;;
2618;SDS011;1319;52.346;13.096;2023-05-19T05:04:51;6.50;;;3.53;;
2618;SDS011;1319;52.346;13.096;2023-05-19T05:07:18;11.37;;;4.50;;
2618;SDS011;1319;52.346;13.096;2023-05-19T05:09:43;7.57;;;3.63;;
2618;SDS011;1319;52.346;13.096;2023-05-19T05:12:09;8.87;;;4.00;;
2618;SDS011;1319;52.346;13.096;2023-05-19T05:14:34;12.47;;;3.67;;
2618;SDS011;1319;52.346;13.096;2023-05-19T05:17:00;13.10;;;4.33;;
2618;SDS011;1319;52.346;13.096;2023-05-19T05:19:25;7.07;;;3.67;;
2618;SDS011;1319;52.346;13.096;2023-05-19T05:21:50;9.03;;;3.60;;
2618;SDS011;1319;52.346;13.096;2023-05-19T05:24:16;9.10;;;4.20;;
2618;SDS011;1319;52.346;13.096;2023-05-19T05:26:41;7.37;;;4.07;;
2618;SDS011;1319;52.346;13.096;2023-05-19T05:29:07;9.20;;;3.50;;
2618;SDS011;1319;52.346;13.096;2023-05-19T05:31:32;10.60;;;3.43;;
2618;SDS011;1319;52.346;13.096;2023-05-19T05:33:58;11.90;;;3.40;;
2618;SDS011;1319;52.346;13.096;2023-05-19T05:36:23;9.70;;;3.13;;
2618;SDS011;1319;52.346;13.096;2023-05-19T05:38:48;5.93;;;3.07;;
2618;SDS011;1319;52.346;13.096;2023-05-19T05:41:14;7.17;;;3.17;;
2618;SDS011;1319;52.346;13.096;2023-05-19T05:43:39;8.17;;;3.50;;
2618;SDS011;1319;52.346;13.096;2023-05-19T05:46:05;4.83;;;2.70;;
2618;SDS011;1319;52.346;13.096;2023-05-19T05:48:30;5.80;;;2.63;;
2618;SDS011;1319;52.346;13.096;2023-05-19T05:50:55;4.80;;;2.60;;
2618;SDS011;1319;52.346;13.096;2023-05-19T05:53:21;3.93;;;2.77;;
2618;SDS011;1319;52.346;13.096;2023-05-19T05:55:48;5.50;;;2.83;;
2618;SDS011;1319;52.346;13.096;2023-05-19T05:58:15;4.97;;;2.90;;
2618;SDS011;1319;52.346;13.096;2023-05-19T06:00:41;4.93;;;2.70;;
2618;SDS011;1319;52.346;13.096;2023-05-19T06:03:09;4.80;;;2.70;;
2618;SDS011;1319;52.346;13.096;2023-05-19T06:05:35;11.07;;;3.00;;
2618;SDS011;1319;52.346;13.096;2023-05-19T06:08:00;9.87;;;3.30;;
2618;SDS011;1319;52.346;13.096;2023-05-19T06:10:26;8.60;;;3.03;;
2618;SDS011;1319;52.346;13.096;2023-05-19T06:12:52;5.20;;;2.90;;
2618;SDS011;1319;52.346;13.096;2023-05-19T06:15:17;6.63;;;2.97;;
2618;SDS011;1319;52.346;13.096;2023-05-19T06:17:42;8.30;;;2.80;;
2618;SDS011;1319;52.346;13.096;2023-05-19T06:20:07;5.83;;;2.90;;
2618;SDS011;1319;52.346;13.096;2023-05-19T06:22:34;7.03;;;2.90;;
2618;SDS011;1319;52.346;13.096;2023-05-19T06:24:59;8.23;;;3.20;;
2618;SDS011;1319;52.346;13.096;2023-05-19T06:27:24;7.43;;;2.70;;
2618;SDS011;1319;52.346;13.096;2023-05-19T06:29:50;6.23;;;3.10;;
2618;SDS011;1319;52.346;13.096;2023-05-19T06:32:15;6.90;;;3.07;;
2618;SDS011;1319;52.346;13.096;2023-05-19T06:34:40;8.10;;;3.13;;
2618;SDS011;1319;52.346;13.096;2023-05-19T06:37:05;5.20;;;2.83;;
2618;SDS011;1319;52.346;13.096;2023-05-19T06:39:31;9.43;;;3.37;;
2618;SDS011;1319;52.346;13.096;2023-05-19T06:41:56;5.63;;;3.10;;
2618;SDS011;1319;52.346;13.096;2023-05-19T06:44:21;6.03;;;3.30;;
2618;SDS011;1319;52.346;13.096;2023-05-19T06:46:47;5.53;;;3.00;;
2618;SDS011;1319;52.346;13.096;2023-05-19T06:49:12;3.77;;;2.90;;
2618;SDS011;1319;52.346;13.096;2023-05-19T06:51:37;3.10;;;2.80;;
2618;SDS011;1319;52.346;13.096;2023-05-19T06:54:03;7.77;;;3.07;;
2618;SDS011;1319;52.346;13.096;2023-05-19T06:56:28;7.77;;;3.27;;
2618;SDS011;1319;52.346;13.096;2023-05-19T06:58:53;6.13;;;3.37;;
2618;SDS011;1319;52.346;13.096;2023-05-19T07:01:19;5.70;;;3.00;;
2618;SDS011;1319;52.346;13.096;2023-05-19T07:03:44;5.03;;;3.00;;
2618;SDS011;1319;52.346;13.096;2023-05-19T07:06:09;8.90;;;3.20;;
2618;SDS011;1319;52.346;13.096;2023-05-19T07:08:34;4.13;;;2.70;;
2618;SDS011;1319;52.346;13.096;2023-05-19T07:11:01;3.40;;;2.90;;
2618;SDS011;1319;52.346;13.096;2023-05-19T07:13:26;6.87;;;2.80;;
2618;SDS011;1319;52.346;13.096;2023-05-19T07:15:51;9.43;;;3.33;;
2618;SDS011;1319;52.346;13.096;2023-05-19T07:18:19;4.70;;;2.80;;
2618;SDS011;1319;52.346;13.096;2023-05-19T07:20:44;3.97;;;2.50;;
2618;SDS011;1319;52.346;13.096;2023-05-19T07:23:10;6.57;;;2.93;;
2618;SDS011;1319;52.346;13.096;2023-05-19T07:25:35;3.40;;;2.60;;
2618;SDS011;1319;52.346;13.096;2023-05-19T07:28:00;3.33;;;2.73;;
2618;SDS011;1319;52.346;13.096;2023-05-19T07:30:26;5.23;;;2.70;;
2618;SDS011;1319;52.346;13.096;2023-05-19T07:32:51;4.07;;;2.70;;
2618;SDS011;1319;52.346;13.096;2023-05-19T07:35:17;7.23;;;2.73;;
2618;SDS011;1319;52.346;13.096;2023-05-19T07:37:42;3.50;;;2.70;;
2618;SDS011;1319;52.346;13.096;2023-05-19T07:40:07;8.10;;;3.00;;
2618;SDS011;1319;52.346;13.096;2023-05-19T07:42:33;5.33;;;2.47;;
2618;SDS011;1319;52.346;13.096;2023-05-19T07:44:58;5.40;;;2.73;;
2618;SDS011;1319;52.346;13.096;2023-05-19T07:47:23;4.73;;;2.60;;
2618;SDS011;1319;52.346;13.096;2023-05-19T07:49:48;6.97;;;2.87;;
2618;SDS011;1319;52.346;13.096;2023-05-19T07:52:13;6.77;;;2.60;;
2618;SDS011;1319;52.346;13.096;2023-05-19T07:54:39;7.70;;;2.90;;
2618;SDS011;1319;52.346;13.096;2023-05-19T07:57:04;3.80;;;2.87;;
2618;SDS011;1319;52.346;13.096;2023-05-19T07:59:29;11.30;;;2.77;;
2618;SDS011;1319;52.346;13.096;2023-05-19T08:01:55;3.80;;;2.77;;
2618;SDS011;1319;52.346;13.096;2023-05-19T08:04:20;6.00;;;2.57;;
2618;SDS011;1319;52.346;13.096;2023-05-19T08:06:45;5.40;;;2.47;;
2618;SDS011;1319;52.346;13.096;2023-05-19T08:09:10;4.27;;;2.90;;
2618;SDS011;1319;52.346;13.096;2023-05-19T08:11:36;6.40;;;2.80;;
2618;SDS011;1319;52.346;13.096;2023-05-19T08:14:01;5.43;;;2.67;;
2618;SDS011;1319;52.346;13.096;2023-05-19T08:16:26;3.10;;;2.77;;
2618;SDS011;1319;52.346;13.096;2023-05-19T08:18:51;3.87;;;2.67;;
2618;SDS011;1319;52.346;13.096;2023-05-19T08:21:17;5.40;;;2.80;;
2618;SDS011;1319;52.346;13.096;2023-05-19T08:23:42;6.33;;;2.80;;
2618;SDS011;1319;52.346;13.096;2023-05-19T08:26:07;7.40;;;2.67;;
2618;SDS011;1319;52.346;13.096;2023-05-19T08:28:32;5.20;;;2.80;;
2618;SDS011;1319;52.346;13.096;2023-05-19T08:30:57;5.90;;;3.00;;
2618;SDS011;1319;52.346;13.096;2023-05-19T08:33:23;5.77;;;2.60;;
2618;SDS011;1319;52.346;13.096;2023-05-19T08:35:48;5.23;;;2.93;;
2618;SDS011;1319;52.346;13.096;2023-05-19T08:38:13;5.30;;;2.90;;
2618;SDS011;1319;52.346;13.096;2023-05-19T08:40:41;7.13;;;2.83;;
2618;SDS011;1319;52.346;13.096;2023-05-19T08:43:07;3.83;;;2.60;;
2618;SDS011;1319;52.346;13.096;2023-05-19T08:45:32;5.37;;;2.73;;
2618;SDS011;1319;52.346;13.096;2023-05-19T08:48:02;5.00;;;2.83;;
2618;SDS011;1319;52.346;13.096;2023-05-19T08:50:31;2.20;;;2.10;;
2618;SDS011;1319;52.346;13.096;2023-05-19T08:53:00;5.00;;;2.70;;
2618;SDS011;1319;52.346;13.096;2023-05-19T08:58:12;5.27;;;2.27;;
2618;SDS011;1319;52.346;13.096;2023-05-19T09:00:39;6.53;;;2.40;;
2618;SDS011;1319;52.346;13.096;2023-05-19T09:03:05;3.13;;;2.20;;
2618;SDS011;1319;52.346;13.096;2023-05-19T09:05:31;5.73;;;2.40;;
2618;SDS011;1319;52.346;13.096;2023-05-19T09:07:56;5.77;;;2.10;;
2618;SDS011;1319;52.346;13.096;2023-05-19T09:10:21;2.90;;;2.20;;
2618;SDS011;1319;52.346;13.096;2023-05-19T09:12:47;6.90;;;2.83;;
2618;SDS011;1319;52.346;13.096;2023-05-19T09:15:15;2.87;;;2.20;;
2618;SDS011;1319;52.346;13.096;2023-05-19T09:17:40;2.77;;;2.17;;
2618;SDS011;1319;52.346;13.096;2023-05-19T09:20:06;4.63;;;1.87;;
2618;SDS011;1319;52.346;13.096;2023-05-19T09:22:39;4.53;;;1.90;;
2618;SDS011;1319;52.346;13.096;2023-05-19T09:25:05;3.87;;;1.80;;
2618;SDS011;1319;52.346;13.096;2023-05-19T09:27:31;1.70;;;1.60;;
2618;SDS011;1319;52.346;13.096;2023-05-19T09:30:05;3.33;;;1.50;;
2618;SDS011;1319;52.346;13.096;2023-05-19T09:32:32;3.43;;;1.60;;
2618;SDS011;1319;52.346;13.096;2023-05-19T09:34:58;2.37;;;1.80;;
2618;SDS011;1319;52.346;13.096;2023-05-19T09:37:26;1.67;;;1.57;;
2618;SDS011;1319;52.346;13.096;2023-05-19T09:39:51;2.67;;;1.83;;
2618;SDS011;1319;52.346;13.096;2023-05-19T09:42:22;2.00;;;1.80;;
2618;SDS011;1319;52.346;13.096;2023-05-19T09:44:48;2.13;;;1.97;;
2618;SDS011;1319;52.346;13.096;2023-05-19T09:47:15;4.03;;;1.90;;
2618;SDS011;1319;52.346;13.096;2023-05-19T09:49:44;1.33;;;1.30;;
2618;SDS011;1319;52.346;13.096;2023-05-19T09:52:11;1.87;;;1.43;;
2618;SDS011;1319;52.346;13.096;2023-05-19T09:54:40;1.43;;;1.40;;
2618;SDS011;1319;52.346;13.096;2023-05-19T09:57:05;1.40;;;1.30;;
2618;SDS011;1319;52.346;13.096;2023-05-19T09:59:31;1.47;;;1.30;;
2618;SDS011;1319;52.346;13.096;2023-05-19T10:01:57;3.13;;;1.40;;
2618;SDS011;1319;52.346;13.096;2023-05-19T10:04:26;2.77;;;1.40;;
2618;SDS011;1319;52.346;13.096;2023-05-19T10:06:52;4.20;;;1.57;;
2618;SDS011;1319;52.346;13.096;2023-05-19T10:09:21;6.23;;;1.50;;
2618;SDS011;1319;52.346;13.096;2023-05-19T10:11:48;2.30;;;1.67;;
2618;SDS011;1319;52.346;13.096;2023-05-19T10:14:13;3.40;;;1.40;;
2618;SDS011;1319;52.346;13.096;2023-05-19T10:16:39;8.53;;;1.60;;
2618;SDS011;1319;52.346;13.096;2023-05-19T10:19:05;3.40;;;1.40;;
2618;SDS011;1319;52.346;13.096;2023-05-19T10:21:31;6.87;;;1.50;;
2618;SDS011;1319;52.346;13.096;2023-05-19T10:23:57;4.07;;;1.43;;
2618;SDS011;1319;52.346;13.096;2023-05-19T10:26:22;2.67;;;1.60;;
2618;SDS011;1319;52.346;13.096;2023-05-19T10:28:47;2.17;;;1.90;;
2618;SDS011;1319;52.346;13.096;2023-05-19T10:31:15;2.37;;;1.80;;
2618;SDS011;1319;52.346;13.096;2023-05-19T10:34:04;1.80;;;1.53;;
2618;SDS011;1319;52.346;13.096;2023-05-19T10:36:47;1.60;;;1.50;;
2618;SDS011;1319;52.346;13.096;2023-05-19T10:44:11;4.90;;;1.83;;
2618;SDS011;1319;52.346;13.096;2023-05-19T10:46:40;1.60;;;1.50;;
2618;SDS011;1319;52.346;13.096;2023-05-19T10:49:07;1.88;;;1.73;;
2618;SDS011;1319;52.346;13.096;2023-05-19T10:51:32;2.37;;;1.63;;
2618;SDS011;1319;52.346;13.096;2023-05-19T10:54:01;5.07;;;1.70;;
2618;SDS011;1319;52.346;13.096;2023-05-19T10:56:32;6.47;;;1.80;;
2618;SDS011;1319;52.346;13.096;2023-05-19T10:59:00;2.28;;;1.63;;
2618;SDS011;1319;52.346;13.096;2023-05-19T11:01:29;3.95;;;1.67;;
2618;SDS011;1319;52.346;13.096;2023-05-19T11:03:55;2.00;;;1.57;;
2618;SDS011;1319;52.346;13.096;2023-05-19T11:06:27;4.65;;;1.90;;
2618;SDS011;1319;52.346;13.096;2023-05-19T11:09:09;1.50;;;1.40;;
2618;SDS011;1319;52.346;13.096;2023-05-19T11:11:43;2.80;;;1.48;;
2618;SDS011;1319;52.346;13.096;2023-05-19T11:14:09;2.60;;;1.45;;
2618;SDS011;1319;52.346;13.096;2023-05-19T11:16:35;1.52;;;1.38;;
2618;SDS011;1319;52.346;13.096;2023-05-19T11:19:00;5.38;;;1.63;;
2618;SDS011;1319;52.346;13.096;2023-05-19T11:24:31;4.73;;;1.50;;
2618;SDS011;1319;52.346;13.096;2023-05-19T11:26:55;2.13;;;1.67;;
2618;SDS011;1319;52.346;13.096;2023-05-19T11:29:21;4.47;;;1.77;;
2618;SDS011;1319;52.346;13.096;2023-05-19T11:31:46;1.90;;;1.70;;
2618;SDS011;1319;52.346;13.096;2023-05-19T11:34:11;3.53;;;1.40;;
2618;SDS011;1319;52.346;13.096;2023-05-19T11:36:37;3.83;;;1.60;;
2618;SDS011;1319;52.346;13.096;2023-05-19T11:39:03;2.07;;;1.60;;
2618;SDS011;1319;52.346;13.096;2023-05-19T11:41:29;5.88;;;1.50;;
2618;SDS011;1319;52.346;13.096;2023-05-19T11:43:55;4.50;;;1.52;;
2618;SDS011;1319;52.346;13.096;2023-05-19T11:46:20;2.88;;;1.30;;
2618;SDS011;1319;52.346;13.096;2023-05-19T11:48:46;2.20;;;1.60;;
2618;SDS011;1319;52.346;13.096;2023-05-19T11:51:11;1.92;;;1.50;;
2618;SDS011;1319;52.346;13.096;2023-05-19T11:53:36;4.80;;;1.67;;
2618;SDS011;1319;52.346;13.096;2023-05-19T11:56:02;1.80;;;1.48;;
2618;SDS011;1319;52.346;13.096;2023-05-19T11:58:28;1.55;;;1.40;;
2618;SDS011;1319;52.346;13.096;2023-05-19T12:00:53;2.40;;;1.45;;
2618;SDS011;1319;52.346;13.096;2023-05-19T12:03:22;4.78;;;1.30;;
2618;SDS011;1319;52.346;13.096;2023-05-19T12:05:52;2.35;;;1.70;;
2618;SDS011;1319;52.346;13.096;2023-05-19T12:08:17;1.67;;;1.58;;
2618;SDS011;1319;52.346;13.096;2023-05-19T12:10:42;2.78;;;1.63;;
2618;SDS011;1319;52.346;13.096;2023-05-19T12:13:08;4.13;;;1.55;;
2618;SDS011;1319;52.346;13.096;2023-05-19T12:15:33;2.13;;;1.70;;
2618;SDS011;1319;52.346;13.096;2023-05-19T12:18:01;3.55;;;1.52;;
2618;SDS011;1319;52.346;13.096;2023-05-19T12:20:27;1.75;;;1.65;;
2618;SDS011;1319;52.346;13.096;2023-05-19T12:22:56;2.60;;;1.73;;
2618;SDS011;1319;52.346;13.096;2023-05-19T12:25:22;6.93;;;1.65;;
2618;SDS011;1319;52.346;13.096;2023-05-19T12:27:47;3.50;;;1.48;;
2618;SDS011;1319;52.346;13.096;2023-05-19T12:30:13;2.92;;;1.63;;
2618;SDS011;1319;52.346;13.096;2023-05-19T12:32:39;3.63;;;1.63;;
2618;SDS011;1319;52.346;13.096;2023-05-19T12:35:04;1.63;;;1.52;;
2618;SDS011;1319;52.346;13.096;2023-05-19T12:37:30;2.33;;;1.73;;
2618;SDS011;1319;52.346;13.096;2023-05-19T12:39:57;6.00;;;1.80;;
2618;SDS011;1319;52.346;13.096;2023-05-19T12:42:22;3.00;;;1.70;;
2618;SDS011;1319;52.346;13.096;2023-05-19T12:44:49;3.17;;;1.63;;
2618;SDS011;1319;52.346;13.096;2023-05-19T12:47:15;2.35;;;1.40;;
2618;SDS011;1319;52.346;13.096;2023-05-19T12:52:24;3.55;;;1.80;;
2618;SDS011;1319;52.346;13.096;2023-05-19T12:55:11;8.05;;;1.95;;
2618;SDS011;1319;52.346;13.096;2023-05-19T12:57:40;2.72;;;1.85;;
2618;SDS011;1319;52.346;13.096;2023-05-19T13:00:15;3.50;;;1.88;;
2618;SDS011;1319;52.346;13.096;2023-05-19T13:05:24;1.93;;;1.77;;
2618;SDS011;1319;52.346;13.096;2023-05-19T13:07:56;1.83;;;1.75;;
2618;SDS011;1319;52.346;13.096;2023-05-19T13:10:22;5.65;;;1.70;;
2618;SDS011;1319;52.346;13.096;2023-05-19T13:12:47;1.60;;;1.50;;
2618;SDS011;1319;52.346;13.096;2023-05-19T13:15:13;1.73;;;1.63;;
2618;SDS011;1319;52.346;13.096;2023-05-19T13:17:38;3.15;;;2.13;;
2618;SDS011;1319;52.346;13.096;2023-05-19T13:20:03;1.70;;;1.60;;
2618;SDS011;1319;52.346;13.096;2023-05-19T13:22:29;3.53;;;1.83;;
2618;SDS011;1319;52.346;13.096;2023-05-19T13:24:54;2.58;;;1.70;;
2618;SDS011;1319;52.346;13.096;2023-05-19T13:27:22;1.85;;;1.75;;
2618;SDS011;1319;52.346;13.096;2023-05-19T13:29:48;2.17;;;1.50;;
2618;SDS011;1319;52.346;13.096;2023-05-19T13:32:13;3.03;;;1.83;;
2618;SDS011;1319;52.346;13.096;2023-05-19T13:34:39;3.30;;;1.98;;
2618;SDS011;1319;52.346;13.096;2023-05-19T13:37:04;5.80;;;1.88;;
2618;SDS011;1319;52.346;13.096;2023-05-19T13:39:29;2.37;;;1.83;;
2618;SDS011;1319;52.346;13.096;2023-05-19T13:41:56;2.37;;;1.70;;
2618;SDS011;1319;52.346;13.096;2023-05-19T13:44:21;7.00;;;1.90;;
2618;SDS011;1319;52.346;13.096;2023-05-19T13:46:49;5.35;;;1.90;;
2618;SDS011;1319;52.346;13.096;2023-05-19T13:49:14;2.78;;;1.90;;
2618;SDS011;1319;52.346;13.096;2023-05-19T13:51:41;1.83;;;1.70;;
2618;SDS011;1319;52.346;13.096;2023-05-19T13:54:06;1.98;;;1.88;;
2618;SDS011;1319;52.346;13.096;2023-05-19T13:56:32;4.75;;;1.98;;
2618;SDS011;1319;52.346;13.096;2023-05-19T13:58:57;1.70;;;1.60;;
2618;SDS011;1319;52.346;13.096;2023-05-19T14:01:22;2.97;;;1.60;;
2618;SDS011;1319;52.346;13.096;2023-05-19T14:03:47;3.67;;;1.67;;
2618;SDS011;1319;52.346;13.096;2023-05-19T14:06:13;2.63;;;1.63;;
2618;SDS011;1319;52.346;13.096;2023-05-19T14:08:38;2.13;;;1.70;;
2618;SDS011;1319;52.346;13.096;2023-05-19T14:11:03;1.77;;;1.52;;
2618;SDS011;1319;52.346;13.096;2023-05-19T14:13:28;1.80;;;1.70;;
2618;SDS011;1319;52.346;13.096;2023-05-19T14:15:54;5.40;;;2.25;;
2618;SDS011;1319;52.346;13.096;2023-05-19T14:18:19;3.30;;;1.67;;
2618;SDS011;1319;52.346;13.096;2023-05-19T14:20:44;2.65;;;1.80;;
2618;SDS011;1319;52.346;13.096;2023-05-19T14:23:09;4.53;;;1.98;;
2618;SDS011;1319;52.346;13.096;2023-05-19T14:25:35;1.70;;;1.60;;
2618;SDS011;1319;52.346;13.096;2023-05-19T14:28:00;2.08;;;1.90;;
2618;SDS011;1319;52.346;13.096;2023-05-19T14:30:25;4.70;;;1.75;;
2618;SDS011;1319;52.346;13.096;2023-05-19T14:32:50;6.47;;;1.65;;
2618;SDS011;1319;52.346;13.096;2023-05-19T14:35:16;1.88;;;1.77;;
2618;SDS011;1319;52.346;13.096;2023-05-19T14:37:41;3.63;;;1.58;;
2618;SDS011;1319;52.346;13.096;2023-05-19T14:40:06;3.50;;;1.50;;
2618;SDS011;1319;52.346;13.096;2023-05-19T14:42:31;1.98;;;1.67;;
2618;SDS011;1319;52.346;13.096;2023-05-19T14:44:57;4.68;;;1.90;;
2618;SDS011;1319;52.346;13.096;2023-05-19T14:47:22;5.70;;;1.80;;
2618;SDS011;1319;52.346;13.096;2023-05-19T14:49:47;1.98;;;1.88;;
2618;SDS011;1319;52.346;13.096;2023-05-19T14:52:12;1.55;;;1.55;;
2618;SDS011;1319;52.346;13.096;2023-05-19T14:54:37;5.47;;;1.65;;
2618;SDS011;1319;52.346;13.096;2023-05-19T14:57:03;1.98;;;1.67;;
2618;SDS011;1319;52.346;13.096;2023-05-19T14:59:28;3.35;;;1.80;;
2618;SDS011;1319;52.346;13.096;2023-05-19T15:01:53;2.30;;;1.85;;
2618;SDS011;1319;52.346;13.096;2023-05-19T15:04:18;6.30;;;1.58;;
2618;SDS011;1319;52.346;13.096;2023-05-19T15:06:44;4.20;;;1.80;;
2618;SDS011;1319;52.346;13.096;2023-05-19T15:09:09;2.85;;;1.80;;
2618;SDS011;1319;52.346;13.096;2023-05-19T15:11:38;3.28;;;1.88;;
2618;SDS011;1319;52.346;13.096;2023-05-19T15:14:03;2.63;;;1.85;;
2618;SDS011;1319;52.346;13.096;2023-05-19T15:16:28;4.45;;;2.00;;
2618;SDS011;1319;52.346;13.096;2023-05-19T15:18:54;6.38;;;2.08;;
2618;SDS011;1319;52.346;13.096;2023-05-19T15:21:19;4.28;;;2.15;;
2618;SDS011;1319;52.346;13.096;2023-05-19T15:23:44;4.22;;;1.73;;
2618;SDS011;1319;52.346;13.096;2023-05-19T15:26:09;3.25;;;1.90;;
2618;SDS011;1319;52.346;13.096;2023-05-19T15:28:35;2.85;;;2.30;;